sensor_id;sensor_type;location;lat;lon;timestamp;pressure;altitude;pressure_sealevel;temperature;humidity
51249;BME280;39642;47.556;18.728;2023-06-14T00:00:21;99334.84;;;21.69;43.33
51249;BME280;39642;47.556;18.728;2023-06-14T00:02:48;99334.00;;;21.69;43.39
51249;BME280;39642;47.556;18.728;2023-06-14T00:05:14;99332.19;;;21.69;43.33
51249;BME280;39642;47.556;18.728;2023-06-14T00:07:41;99321.69;;;21.68;43.40
51249;BME280;39642;47.556;18.728;2023-06-14T00:10:09;99324.34;;;21.68;43.49
51249;BME280;39642;47.556;18.728;2023-06-14T00:12:35;99323.50;;;21.67;43.54
51249;BME280;39642;47.556;18.728;2023-06-14T00:15:02;99324.47;;;21.66;43.58
51249;BME280;39642;47.556;18.728;2023-06-14T00:17:28;99328.91;;;21.66;43.57
51249;BME280;39642;47.556;18.728;2023-06-14T00:20:01;99323.59;;;21.66;43.59
51249;BME280;39642;47.556;18.728;2023-06-14T00:22:28;99330.59;;;21.67;43.54
51249;BME280;39642;47.556;18.728;2023-06-14T00:24:54;99333.34;;;21.65;43.52
51249;BME280;39642;47.556;18.728;2023-06-14T00:27:20;99339.50;;;21.66;43.55
51249;BME280;39642;47.556;18.728;2023-06-14T00:29:46;99335.91;;;21.67;43.55
51249;BME280;39642;47.556;18.728;2023-06-14T00:32:12;99334.19;;;21.66;43.54
51249;BME280;39642;47.556;18.728;2023-06-14T00:34:37;99335.06;;;21.66;43.51
51249;BME280;39642;47.556;18.728;2023-06-14T00:37:04;99331.53;;;21.66;43.51
51249;BME280;39642;47.556;18.728;2023-06-14T00:39:29;99336.00;;;21.65;43.50
51249;BME280;39642;47.556;18.728;2023-06-14T00:41:55;99338.66;;;21.65;43.61
51249;BME280;39642;47.556;18.728;2023-06-14T00:44:21;99337.81;;;21.65;43.52
51249;BME280;39642;47.556;18.728;2023-06-14T00:46:47;99343.13;;;21.65;43.56
51249;BME280;39642;47.556;18.728;2023-06-14T00:49:14;99333.44;;;21.63;43.47
51249;BME280;39642;47.556;18.728;2023-06-14T00:51:42;99335.25;;;21.63;43.53
51249;BME280;39642;47.556;18.728;2023-06-14T00:54:08;99342.28;;;21.64;43.55
51249;BME280;39642;47.556;18.728;2023-06-14T00:56:38;99341.41;;;21.63;43.55
51249;BME280;39642;47.556;18.728;2023-06-14T00:59:04;99345.03;;;21.62;43.58
51249;BME280;39642;47.556;18.728;2023-06-14T01:01:30;99341.41;;;21.63;43.59
51249;BME280;39642;47.556;18.728;2023-06-14T01:03:59;99339.72;;;21.62;43.61
51249;BME280;39642;47.556;18.728;2023-06-14T01:09:25;99337.06;;;21.62;43.61
51249;BME280;39642;47.556;18.728;2023-06-14T01:12:13;99336.22;;;21.62;43.69
51249;BME280;39642;47.556;18.728;2023-06-14T01:14:41;99332.72;;;21.61;43.64
51249;BME280;39642;47.556;18.728;2023-06-14T01:17:08;99334.53;;;21.61;43.65
51249;BME280;39642;47.556;18.728;2023-06-14T01:19:41;99325.72;;;21.60;43.61
51249;BME280;39642;47.556;18.728;2023-06-14T01:22:08;99325.72;;;21.60;43.67
51249;BME280;39642;47.556;18.728;2023-06-14T01:24:34;99325.72;;;21.60;43.62
51249;BME280;39642;47.556;18.728;2023-06-14T01:27:01;99332.72;;;21.61;43.53
51249;BME280;39642;47.556;18.728;2023-06-14T01:29:28;99330.19;;;21.60;43.58
51249;BME280;39642;47.556;18.728;2023-06-14T01:32:01;99324.91;;;21.60;43.54
51249;BME280;39642;47.556;18.728;2023-06-14T01:34:28;99331.03;;;21.60;43.50
51249;BME280;39642;47.556;18.728;2023-06-14T01:36:54;99326.69;;;21.59;43.50
51249;BME280;39642;47.556;18.728;2023-06-14T01:39:21;99340.78;;;21.60;43.48
51249;BME280;39642;47.556;18.728;2023-06-14T01:41:49;99332.00;;;21.59;43.50
51249;BME280;39642;47.556;18.728;2023-06-14T01:44:17;99333.78;;;21.59;43.48
51249;BME280;39642;47.556;18.728;2023-06-14T01:46:44;99337.41;;;21.58;43.48
51249;BME280;39642;47.556;18.728;2023-06-14T01:49:11;99337.41;;;21.58;43.45
51249;BME280;39642;47.556;18.728;2023-06-14T01:51:37;99329.44;;;21.58;43.44
51249;BME280;39642;47.556;18.728;2023-06-14T01:54:03;99332.19;;;21.56;43.46
51249;BME280;39642;47.556;18.728;2023-06-14T01:56:29;99333.91;;;21.57;43.45
51249;BME280;39642;47.556;18.728;2023-06-14T01:58:55;99335.69;;;21.57;43.40
51249;BME280;39642;47.556;18.728;2023-06-14T02:01:21;99330.37;;;21.57;43.38
51249;BME280;39642;47.556;18.728;2023-06-14T02:03:47;99341.84;;;21.57;43.41
51249;BME280;39642;47.556;18.728;2023-06-14T02:06:14;99340.16;;;21.56;43.39
51249;BME280;39642;47.556;18.728;2023-06-14T02:08:41;99345.44;;;21.56;43.38
51249;BME280;39642;47.556;18.728;2023-06-14T02:11:08;99346.41;;;21.55;43.33
51249;BME280;39642;47.556;18.728;2023-06-14T02:13:34;99344.59;;;21.56;43.37
51249;BME280;39642;47.556;18.728;2023-06-14T02:16:00;99344.59;;;21.56;43.35
51249;BME280;39642;47.556;18.728;2023-06-14T02:18:26;99353.53;;;21.55;43.27
51249;BME280;39642;47.556;18.728;2023-06-14T02:20:53;99350.88;;;21.55;43.26
51249;BME280;39642;47.556;18.728;2023-06-14T02:23:18;99351.81;;;21.54;43.26
51249;BME280;39642;47.556;18.728;2023-06-14T02:25:45;99344.69;;;21.54;43.27
51249;BME280;39642;47.556;18.728;2023-06-14T02:28:11;99348.31;;;21.53;43.25
51249;BME280;39642;47.556;18.728;2023-06-14T02:30:37;99345.66;;;21.53;43.25
51249;BME280;39642;47.556;18.728;2023-06-14T02:33:03;99347.47;;;21.53;43.26
51249;BME280;39642;47.556;18.728;2023-06-14T02:35:30;99347.47;;;21.53;43.21
51249;BME280;39642;47.556;18.728;2023-06-14T02:37:56;99344.84;;;21.53;43.25
51249;BME280;39642;47.556;18.728;2023-06-14T02:40:22;99346.59;;;21.52;43.25
51249;BME280;39642;47.556;18.728;2023-06-14T02:42:48;99338.66;;;21.52;43.22
51249;BME280;39642;47.556;18.728;2023-06-14T02:45:14;99336.00;;;21.52;43.24
51249;BME280;39642;47.556;18.728;2023-06-14T02:47:40;99341.31;;;21.52;43.19
51249;BME280;39642;47.556;18.728;2023-06-14T02:50:07;99338.66;;;21.52;43.26
51249;BME280;39642;47.556;18.728;2023-06-14T02:52:33;99343.97;;;21.52;43.25
51249;BME280;39642;47.556;18.728;2023-06-14T02:54:59;99341.31;;;21.52;43.28
51249;BME280;39642;47.556;18.728;2023-06-14T02:57:25;99346.59;;;21.52;43.27
51249;BME280;39642;47.556;18.728;2023-06-14T02:59:51;99337.06;;;21.50;43.29
51249;BME280;39642;47.556;18.728;2023-06-14T03:02:18;99347.56;;;21.51;43.28
51249;BME280;39642;47.556;18.728;2023-06-14T03:04:43;99340.56;;;21.50;43.30
51249;BME280;39642;47.556;18.728;2023-06-14T03:07:12;99339.72;;;21.50;43.33
51249;BME280;39642;47.556;18.728;2023-06-14T03:09:38;99338.87;;;21.49;43.31
51249;BME280;39642;47.556;18.728;2023-06-14T03:12:06;99347.66;;;21.50;43.31
51249;BME280;39642;47.556;18.728;2023-06-14T03:14:32;99348.50;;;21.50;43.37
51249;BME280;39642;47.556;18.728;2023-06-14T03:16:58;99349.38;;;21.51;43.41
51249;BME280;39642;47.556;18.728;2023-06-14T03:19:26;99346.84;;;21.49;43.42
51249;BME280;39642;47.556;18.728;2023-06-14T03:21:52;99351.16;;;21.50;43.48
51249;BME280;39642;47.556;18.728;2023-06-14T03:24:19;99344.19;;;21.49;43.44
51249;BME280;39642;47.556;18.728;2023-06-14T03:26:45;99345.87;;;21.50;43.50
51249;BME280;39642;47.556;18.728;2023-06-14T03:29:11;99351.16;;;21.50;43.50
51249;BME280;39642;47.556;18.728;2023-06-14T03:31:56;99352.13;;;21.49;43.49
51249;BME280;39642;47.556;18.728;2023-06-14T03:34:23;99349.47;;;21.49;43.55
51249;BME280;39642;47.556;18.728;2023-06-14T03:36:49;99348.62;;;21.49;43.59
51249;BME280;39642;47.556;18.728;2023-06-14T03:39:15;99356.47;;;21.50;43.60
51249;BME280;39642;47.556;18.728;2023-06-14T03:41:41;99354.78;;;21.49;43.66
51249;BME280;39642;47.556;18.728;2023-06-14T03:44:06;99354.78;;;21.49;43.69
51249;BME280;39642;47.556;18.728;2023-06-14T03:46:32;99372.34;;;21.50;43.76
51249;BME280;39642;47.556;18.728;2023-06-14T03:48:58;99362.63;;;21.51;43.79
51249;BME280;39642;47.556;18.728;2023-06-14T03:51:24;99371.50;;;21.50;43.80
51249;BME280;39642;47.556;18.728;2023-06-14T03:53:51;99372.34;;;21.50;43.83
51249;BME280;39642;47.556;18.728;2023-06-14T03:56:16;99364.53;;;21.49;43.89
51249;BME280;39642;47.556;18.728;2023-06-14T03:58:42;99365.38;;;21.49;43.91
51249;BME280;39642;47.556;18.728;2023-06-14T04:01:08;99372.34;;;21.50;43.94
51249;BME280;39642;47.556;18.728;2023-06-14T04:03:34;99375.87;;;21.51;43.97
51249;BME280;39642;47.556;18.728;2023-06-14T04:06:00;99378.53;;;21.51;44.03
51249;BME280;39642;47.556;18.728;2023-06-14T04:08:26;99380.31;;;21.50;44.04
51249;BME280;39642;47.556;18.728;2023-06-14T04:10:52;99375.97;;;21.49;44.12
51249;BME280;39642;47.556;18.728;2023-06-14T04:13:18;99376.81;;;21.50;44.18
51249;BME280;39642;47.556;18.728;2023-06-14T04:15:44;99377.66;;;21.50;44.26
51249;BME280;39642;47.556;18.728;2023-06-14T04:18:12;99375.97;;;21.49;44.34
51249;BME280;39642;47.556;18.728;2023-06-14T04:20:37;99382.94;;;21.50;44.42
51249;BME280;39642;47.556;18.728;2023-06-14T04:23:15;99383.06;;;21.49;44.45
51249;BME280;39642;47.556;18.728;2023-06-14T04:25:44;99384.66;;;21.51;44.46
51249;BME280;39642;47.556;18.728;2023-06-14T04:28:13;99389.97;;;21.51;44.58
51249;BME280;39642;47.556;18.728;2023-06-14T04:30:42;99389.00;;;21.52;44.66
51249;BME280;39642;47.556;18.728;2023-06-14T04:33:07;99391.78;;;21.51;44.73
51249;BME280;39642;47.556;18.728;2023-06-14T04:35:35;99396.94;;;21.52;44.76
51249;BME280;39642;47.556;18.728;2023-06-14T04:38:03;99402.25;;;21.52;44.81
51249;BME280;39642;47.556;18.728;2023-06-14T04:40:36;99400.56;;;21.51;44.86
51249;BME280;39642;47.556;18.728;2023-06-14T04:43:08;99401.31;;;21.53;44.92
51249;BME280;39642;47.556;18.728;2023-06-14T04:45:38;99403.94;;;21.53;44.96
51249;BME280;39642;47.556;18.728;2023-06-14T04:48:05;99406.59;;;21.53;45.03
51249;BME280;39642;47.556;18.728;2023-06-14T04:50:32;99403.94;;;21.53;45.32
51249;BME280;39642;47.556;18.728;2023-06-14T04:52:58;99405.75;;;21.53;46.16
51249;BME280;39642;47.556;18.728;2023-06-14T04:55:25;99400.34;;;21.54;45.42
51249;BME280;39642;47.556;18.728;2023-06-14T04:57:52;99401.22;;;21.55;45.24
51249;BME280;39642;47.556;18.728;2023-06-14T05:00:20;99403.72;;;21.56;45.52
51249;BME280;39642;47.556;18.728;2023-06-14T05:02:46;99405.31;;;21.59;45.80
51249;BME280;39642;47.556;18.728;2023-06-14T05:05:12;99405.97;;;21.62;46.10
51249;BME280;39642;47.556;18.728;2023-06-14T05:07:38;99407.53;;;21.65;46.32
51249;BME280;39642;47.556;18.728;2023-06-14T05:10:06;99407.44;;;21.67;46.30
51249;BME280;39642;47.556;18.728;2023-06-14T05:12:32;99405.63;;;21.67;46.51
51249;BME280;39642;47.556;18.728;2023-06-14T05:14:58;99404.81;;;21.67;46.51
51249;BME280;39642;47.556;18.728;2023-06-14T05:17:26;99411.78;;;21.68;46.68
51249;BME280;39642;47.556;18.728;2023-06-14T05:19:53;99410.84;;;21.69;46.98
51249;BME280;39642;47.556;18.728;2023-06-14T05:22:21;99412.53;;;21.70;47.17
51249;BME280;39642;47.556;18.728;2023-06-14T05:24:47;99411.59;;;21.71;47.38
51249;BME280;39642;47.556;18.728;2023-06-14T05:27:13;99414.09;;;21.72;48.02
51249;BME280;39642;47.556;18.728;2023-06-14T05:29:40;99415.69;;;21.75;49.56
51249;BME280;39642;47.556;18.728;2023-06-14T05:32:06;99414.75;;;21.76;49.84
51249;BME280;39642;47.556;18.728;2023-06-14T05:34:32;99410.28;;;21.76;48.66
51249;BME280;39642;47.556;18.728;2023-06-14T05:36:58;99417.50;;;21.74;48.79
51249;BME280;39642;47.556;18.728;2023-06-14T05:39:24;99410.28;;;21.76;48.24
51249;BME280;39642;47.556;18.728;2023-06-14T05:41:50;99416.75;;;21.72;48.31
51249;BME280;39642;47.556;18.728;2023-06-14T05:44:16;99418.66;;;21.70;48.62
51249;BME280;39642;47.556;18.728;2023-06-14T05:46:43;99420.47;;;21.70;48.56
51249;BME280;39642;47.556;18.728;2023-06-14T05:49:09;99418.78;;;21.69;48.01
51249;BME280;39642;47.556;18.728;2023-06-14T05:51:35;99420.69;;;21.67;47.92
51249;BME280;39642;47.556;18.728;2023-06-14T05:54:01;99426.00;;;21.67;48.18
51249;BME280;39642;47.556;18.728;2023-06-14T05:56:27;99415.41;;;21.67;48.24
51249;BME280;39642;47.556;18.728;2023-06-14T05:58:53;99418.03;;;21.67;48.06
51249;BME280;39642;47.556;18.728;2023-06-14T06:01:18;99421.53;;;21.67;48.50
51249;BME280;39642;47.556;18.728;2023-06-14T06:03:45;99416.97;;;21.69;48.58
51249;BME280;39642;47.556;18.728;2023-06-14T06:06:12;99424.09;;;21.69;48.20
51249;BME280;39642;47.556;18.728;2023-06-14T06:08:38;99420.38;;;21.71;48.52
51249;BME280;39642;47.556;18.728;2023-06-14T06:11:04;99420.91;;;21.76;48.06
51249;BME280;39642;47.556;18.728;2023-06-14T06:13:29;99422.28;;;21.82;48.22
51249;BME280;39642;47.556;18.728;2023-06-14T06:15:55;99417.69;;;21.84;47.96
51249;BME280;39642;47.556;18.728;2023-06-14T06:18:22;99420.16;;;21.87;47.99
51249;BME280;39642;47.556;18.728;2023-06-14T06:20:47;99420.91;;;21.89;47.86
51249;BME280;39642;47.556;18.728;2023-06-14T06:23:14;99426.94;;;21.91;48.06
51249;BME280;39642;47.556;18.728;2023-06-14T06:25:40;99427.03;;;21.90;47.98
51249;BME280;39642;47.556;18.728;2023-06-14T06:28:05;99423.56;;;21.89;47.92
51249;BME280;39642;47.556;18.728;2023-06-14T06:30:31;99433.19;;;21.90;47.97
51249;BME280;39642;47.556;18.728;2023-06-14T06:32:57;99427.03;;;21.90;47.91
51249;BME280;39642;47.556;18.728;2023-06-14T06:35:24;99431.38;;;21.91;47.87
51249;BME280;39642;47.556;18.728;2023-06-14T06:37:50;99429.59;;;21.91;47.90
51249;BME280;39642;47.556;18.728;2023-06-14T06:40:15;99427.78;;;21.92;47.90
51249;BME280;39642;47.556;18.728;2023-06-14T06:42:42;99421.50;;;21.93;47.95
51249;BME280;39642;47.556;18.728;2023-06-14T06:45:08;99426.72;;;21.94;48.02
51249;BME280;39642;47.556;18.728;2023-06-14T06:47:34;99422.25;;;21.95;48.09
51249;BME280;39642;47.556;18.728;2023-06-14T06:49:59;99419.59;;;21.95;48.13
51249;BME280;39642;47.556;18.728;2023-06-14T06:52:25;99430.94;;;21.97;48.27
51249;BME280;39642;47.556;18.728;2023-06-14T06:54:51;99431.09;;;21.95;48.51
51249;BME280;39642;47.556;18.728;2023-06-14T06:57:21;99434.56;;;21.96;48.61
51249;BME280;39642;47.556;18.728;2023-06-14T06:59:49;99433.72;;;21.95;48.73
51249;BME280;39642;47.556;18.728;2023-06-14T07:02:15;99442.53;;;21.96;49.06
51249;BME280;39642;47.556;18.728;2023-06-14T07:04:41;99428.31;;;21.97;48.89
51249;BME280;39642;47.556;18.728;2023-06-14T07:07:07;99426.62;;;21.96;48.65
51249;BME280;39642;47.556;18.728;2023-06-14T07:09:35;99434.44;;;21.97;48.51
51249;BME280;39642;47.556;18.728;2023-06-14T07:12:01;99439.53;;;22.00;48.47
51249;BME280;39642;47.556;18.728;2023-06-14T07:14:27;99433.28;;;22.01;48.81
51249;BME280;39642;47.556;18.728;2023-06-14T07:16:53;99427.97;;;22.01;48.86
51249;BME280;39642;47.556;18.728;2023-06-14T07:19:19;99426.28;;;22.00;48.90
51249;BME280;39642;47.556;18.728;2023-06-14T07:21:45;99436.66;;;22.03;49.14
51249;BME280;39642;47.556;18.728;2023-06-14T07:24:11;99426.81;;;22.06;48.88
51249;BME280;39642;47.556;18.728;2023-06-14T07:26:37;99435.50;;;22.08;48.71
51249;BME280;39642;47.556;18.728;2023-06-14T07:29:03;99437.19;;;22.09;48.66
51249;BME280;39642;47.556;18.728;2023-06-14T07:31:29;99441.66;;;22.08;49.15
51249;BME280;39642;47.556;18.728;2023-06-14T07:33:55;99441.03;;;22.04;48.99
51249;BME280;39642;47.556;18.728;2023-06-14T07:36:22;99445.47;;;22.04;48.87
51249;BME280;39642;47.556;18.728;2023-06-14T07:38:47;99443.56;;;22.06;49.05
51249;BME280;39642;47.556;18.728;2023-06-14T07:41:13;99448.75;;;22.08;48.98
51249;BME280;39642;47.556;18.728;2023-06-14T07:43:39;99446.84;;;22.10;48.90
51249;BME280;39642;47.556;18.728;2023-06-14T07:46:05;99447.78;;;22.09;48.92
51249;BME280;39642;47.556;18.728;2023-06-14T07:48:31;99450.66;;;22.06;49.06
51249;BME280;39642;47.556;18.728;2023-06-14T07:50:57;99449.94;;;22.03;49.24
51249;BME280;39642;47.556;18.728;2023-06-14T07:53:23;99454.38;;;22.03;49.21
51249;BME280;39642;47.556;18.728;2023-06-14T07:55:49;99451.84;;;22.01;49.02
51249;BME280;39642;47.556;18.728;2023-06-14T07:58:16;99451.50;;;22.06;49.04
51249;BME280;39642;47.556;18.728;2023-06-14T08:00:42;99465.75;;;22.05;49.09
51249;BME280;39642;47.556;18.728;2023-06-14T08:03:07;99465.63;;;22.07;49.00
51249;BME280;39642;47.556;18.728;2023-06-14T08:05:33;99463.19;;;22.03;48.76
51249;BME280;39642;47.556;18.728;2023-06-14T08:08:00;99470.41;;;22.01;48.78
51249;BME280;39642;47.556;18.728;2023-06-14T08:10:26;99465.31;;;21.98;49.67
51249;BME280;39642;47.556;18.728;2023-06-14T08:12:52;99472.75;;;21.93;49.33
51249;BME280;39642;47.556;18.728;2023-06-14T08:15:18;99472.84;;;21.92;49.22
51249;BME280;39642;47.556;18.728;2023-06-14T08:17:44;99471.12;;;21.91;49.05
51249;BME280;39642;47.556;18.728;2023-06-14T08:20:11;99476.44;;;21.91;49.31
51249;BME280;39642;47.556;18.728;2023-06-14T08:22:37;99471.25;;;21.89;49.54
51249;BME280;39642;47.556;18.728;2023-06-14T08:25:05;99481.13;;;21.87;50.65
51249;BME280;39642;47.556;18.728;2023-06-14T08:27:32;99478.78;;;21.82;50.79
51249;BME280;39642;47.556;18.728;2023-06-14T08:29:58;99481.53;;;21.81;50.51
51249;BME280;39642;47.556;18.728;2023-06-14T08:32:26;99477.28;;;21.78;50.55
51249;BME280;39642;47.556;18.728;2023-06-14T08:34:52;99481.63;;;21.79;50.63
51249;BME280;39642;47.556;18.728;2023-06-14T08:37:18;99483.44;;;21.79;50.26
51249;BME280;39642;47.556;18.728;2023-06-14T08:39:44;99490.66;;;21.77;50.52
51249;BME280;39642;47.556;18.728;2023-06-14T08:42:12;99483.75;;;21.74;50.04
51249;BME280;39642;47.556;18.728;2023-06-14T08:44:39;99493.72;;;21.71;50.74
51249;BME280;39642;47.556;18.728;2023-06-14T08:47:07;99500.81;;;21.70;51.24
51249;BME280;39642;47.556;18.728;2023-06-14T08:49:36;99499.75;;;21.73;51.27
51249;BME280;39642;47.556;18.728;2023-06-14T08:52:05;99503.16;;;21.75;50.86
51249;BME280;39642;47.556;18.728;2023-06-14T08:54:33;99505.69;;;21.76;50.94
51249;BME280;39642;47.556;18.728;2023-06-14T08:57:02;99505.03;;;21.73;51.02
51249;BME280;39642;47.556;18.728;2023-06-14T08:59:33;99510.34;;;21.73;51.48
51249;BME280;39642;47.556;18.728;2023-06-14T09:02:06;99512.06;;;21.74;52.21
51249;BME280;39642;47.556;18.728;2023-06-14T09:04:32;99513.75;;;21.75;51.92
51249;BME280;39642;47.556;18.728;2023-06-14T09:10:25;99516.22;;;21.78;52.50
51249;BME280;39642;47.556;18.728;2023-06-14T09:15:37;99512.41;;;21.82;51.84
51249;BME280;39642;47.556;18.728;2023-06-14T09:21:47;99507.63;;;21.87;51.70
51249;BME280;39642;47.556;18.728;2023-06-14T09:24:14;99514.59;;;21.88;51.29
51249;BME280;39642;47.556;18.728;2023-06-14T09:27:18;99516.19;;;21.91;51.64
51249;BME280;39642;47.556;18.728;2023-06-14T09:30:04;99511.03;;;21.89;51.79
51249;BME280;39642;47.556;18.728;2023-06-14T09:32:40;99514.59;;;21.88;51.57
51249;BME280;39642;47.556;18.728;2023-06-14T09:35:41;99507.53;;;21.89;51.60
51249;BME280;39642;47.556;18.728;2023-06-14T09:38:30;99507.22;;;21.93;51.17
51249;BME280;39642;47.556;18.728;2023-06-14T09:47:31;99503.81;;;21.91;51.27
51249;BME280;39642;47.556;18.728;2023-06-14T09:50:21;99504.66;;;21.92;50.67
51249;BME280;39642;47.556;18.728;2023-06-14T09:52:57;99497.34;;;21.95;51.29
51249;BME280;39642;47.556;18.728;2023-06-14T09:55:35;99505.81;;;22.00;50.97
51249;BME280;39642;47.556;18.728;2023-06-14T09:58:20;99498.50;;;22.04;50.78
51249;BME280;39642;47.556;18.728;2023-06-14T10:04:28;99488.00;;;22.02;51.36
51249;BME280;39642;47.556;18.728;2023-06-14T10:07:08;99482.59;;;22.04;51.44
51249;BME280;39642;47.556;18.728;2023-06-14T10:10:18;99485.13;;;22.06;50.99
51249;BME280;39642;47.556;18.728;2023-06-14T10:13:05;99483.47;;;22.04;51.19
51249;BME280;39642;47.556;18.728;2023-06-14T11:12:47;99466.72;;;22.91;47.62
51249;BME280;39642;47.556;18.728;2023-06-14T11:15:14;99478.13;;;22.30;48.18
51249;BME280;39642;47.556;18.728;2023-06-14T11:17:51;99468.50;;;22.29;47.56
51249;BME280;39642;47.556;18.728;2023-06-14T11:20:19;99474.66;;;22.30;46.95
51249;BME280;39642;47.556;18.728;2023-06-14T11:22:46;99472.00;;;22.30;46.61
51249;BME280;39642;47.556;18.728;2023-06-14T11:25:13;99475.59;;;22.29;46.34
51249;BME280;39642;47.556;18.728;2023-06-14T11:27:42;99470.28;;;22.29;45.75
51249;BME280;39642;47.556;18.728;2023-06-14T11:30:08;99473.06;;;22.27;45.73
51249;BME280;39642;47.556;18.728;2023-06-14T11:32:37;99467.03;;;22.25;45.20
51249;BME280;39642;47.556;18.728;2023-06-14T11:35:04;99460.75;;;22.26;45.62
51249;BME280;39642;47.556;18.728;2023-06-14T11:37:33;99458.41;;;22.34;45.93
51249;BME280;39642;47.556;18.728;2023-06-14T11:40:00;99463.88;;;22.44;46.16
51249;BME280;39642;47.556;18.728;2023-06-14T11:42:27;99460.16;;;22.47;45.92
51249;BME280;39642;47.556;18.728;2023-06-14T11:44:56;99461.13;;;22.45;45.78
51249;BME280;39642;47.556;18.728;2023-06-14T11:47:22;99459.41;;;22.44;45.43
51249;BME280;39642;47.556;18.728;2023-06-14T11:49:48;99472.19;;;22.39;45.22
51249;BME280;39642;47.556;18.728;2023-06-14T11:52:14;99468.78;;;22.37;45.07
51249;BME280;39642;47.556;18.728;2023-06-14T11:54:40;99463.72;;;22.34;46.13
51249;BME280;39642;47.556;18.728;2023-06-14T11:57:07;99465.53;;;22.34;47.01
51249;BME280;39642;47.556;18.728;2023-06-14T11:59:40;99463.28;;;22.28;47.29
51249;BME280;39642;47.556;18.728;2023-06-14T12:02:07;99472.19;;;22.27;47.51
51249;BME280;39642;47.556;18.728;2023-06-14T12:04:33;99464.47;;;22.23;46.75
51249;BME280;39642;47.556;18.728;2023-06-14T12:07:15;99473.41;;;22.22;46.09
51249;BME280;39642;47.556;18.728;2023-06-14T12:12:22;99465.50;;;22.21;44.98
51249;BME280;39642;47.556;18.728;2023-06-14T12:14:49;99467.22;;;22.22;44.83
51249;BME280;39642;47.556;18.728;2023-06-14T12:17:17;99469.03;;;22.21;44.73
51249;BME280;39642;47.556;18.728;2023-06-14T12:19:44;99474.09;;;22.24;44.65
51249;BME280;39642;47.556;18.728;2023-06-14T12:22:11;99475.81;;;22.26;43.79
51249;BME280;39642;47.556;18.728;2023-06-14T12:24:37;99478.47;;;22.26;44.27
51249;BME280;39642;47.556;18.728;2023-06-14T12:27:05;99474.97;;;22.25;44.93
51249;BME280;39642;47.556;18.728;2023-06-14T12:29:32;99487.25;;;22.26;45.21
51249;BME280;39642;47.556;18.728;2023-06-14T12:31:58;99480.28;;;22.25;45.44
51249;BME280;39642;47.556;18.728;2023-06-14T12:34:24;99471.59;;;22.23;44.17
51249;BME280;39642;47.556;18.728;2023-06-14T12:36:50;99475.81;;;22.26;43.95
51249;BME280;39642;47.556;18.728;2023-06-14T12:39:17;99474.97;;;22.25;44.12
51249;BME280;39642;47.556;18.728;2023-06-14T12:41:43;99478.47;;;22.26;44.90
51249;BME280;39642;47.556;18.728;2023-06-14T12:44:10;99476.09;;;22.21;45.38
51249;BME280;39642;47.556;18.728;2023-06-14T12:46:36;99486.19;;;22.16;45.41
51249;BME280;39642;47.556;18.728;2023-06-14T12:49:07;99472.31;;;22.12;45.08
51249;BME280;39642;47.556;18.728;2023-06-14T12:51:33;99468.81;;;22.12;45.12
51249;BME280;39642;47.556;18.728;2023-06-14T12:53:59;99473.97;;;22.13;45.40
51249;BME280;39642;47.556;18.728;2023-06-14T12:56:24;99466.78;;;22.15;44.75
51249;BME280;39642;47.556;18.728;2023-06-14T12:58:52;99471.75;;;22.20;43.89
51249;BME280;39642;47.556;18.728;2023-06-14T13:01:18;99467.31;;;22.20;45.69
51249;BME280;39642;47.556;18.728;2023-06-14T13:03:46;99467.22;;;22.22;45.27
51249;BME280;39642;47.556;18.728;2023-06-14T13:06:12;99462.84;;;22.21;44.90
51249;BME280;39642;47.556;18.728;2023-06-14T13:08:39;99457.53;;;22.21;45.14
51249;BME280;39642;47.556;18.728;2023-06-14T13:11:05;99455.84;;;22.20;45.42
51249;BME280;39642;47.556;18.728;2023-06-14T13:13:30;99461.06;;;22.21;45.93
51249;BME280;39642;47.556;18.728;2023-06-14T13:15:56;99458.63;;;22.18;46.08
51249;BME280;39642;47.556;18.728;2023-06-14T13:18:22;99463.78;;;22.20;46.63
51249;BME280;39642;47.556;18.728;2023-06-14T13:20:48;99460.19;;;22.21;47.18
51249;BME280;39642;47.556;18.728;2023-06-14T13:23:16;99460.97;;;22.23;47.30
51249;BME280;39642;47.556;18.728;2023-06-14T13:25:43;99463.62;;;22.23;47.25
51249;BME280;39642;47.556;18.728;2023-06-14T13:28:09;99460.13;;;22.22;47.02
51249;BME280;39642;47.556;18.728;2023-06-14T13:30:35;99457.34;;;22.24;46.36
51249;BME280;39642;47.556;18.728;2023-06-14T13:33:01;99459.25;;;22.22;45.55
51249;BME280;39642;47.556;18.728;2023-06-14T13:35:30;99454.06;;;22.20;45.59
51249;BME280;39642;47.556;18.728;2023-06-14T13:37:56;99458.31;;;22.23;45.31
51249;BME280;39642;47.556;18.728;2023-06-14T13:40:22;99453.75;;;22.25;45.08
51249;BME280;39642;47.556;18.728;2023-06-14T13:42:48;99450.22;;;22.24;45.98
51249;BME280;39642;47.556;18.728;2023-06-14T13:45:15;99448.44;;;22.25;44.27
51249;BME280;39642;47.556;18.728;2023-06-14T13:47:41;99451.84;;;22.27;43.85
51249;BME280;39642;47.556;18.728;2023-06-14T13:50:07;99446.66;;;22.26;43.86
51249;BME280;39642;47.556;18.728;2023-06-14T13:52:33;99444.00;;;22.26;42.83
51249;BME280;39642;47.556;18.728;2023-06-14T13:54:59;99444.81;;;22.26;42.77
51249;BME280;39642;47.556;18.728;2023-06-14T13:57:26;99441.25;;;22.27;41.96
51249;BME280;39642;47.556;18.728;2023-06-14T13:59:52;99440.25;;;22.28;45.52
51249;BME280;39642;47.556;18.728;2023-06-14T14:02:21;99437.63;;;22.28;44.63
51249;BME280;39642;47.556;18.728;2023-06-14T14:04:46;99442.69;;;22.31;45.05
51249;BME280;39642;47.556;18.728;2023-06-14T14:07:18;99439.19;;;22.31;45.48
51249;BME280;39642;47.556;18.728;2023-06-14T14:09:44;99433.06;;;22.30;44.76
51249;BME280;39642;47.556;18.728;2023-06-14T14:12:10;99440.16;;;22.30;44.57
51249;BME280;39642;47.556;18.728;2023-06-14T14:14:37;99435.94;;;22.27;44.69